createdAt,value
2018-04-15T00:00:41.305Z,19.03
2018-04-15T00:03:09.368Z,19.06
2018-04-15T00:05:37.371Z,19.03
2018-04-15T00:08:05.362Z,19.01
2018-04-15T00:10:33.347Z,18.96
2018-04-15T00:13:01.292Z,18.99
2018-04-15T00:15:29.268Z,18.99
2018-04-15T00:17:57.193Z,18.96
2018-04-15T00:20:25.475Z,18.97
2018-04-15T00:22:53.436Z,18.97
2018-04-15T00:25:21.485Z,18.95
2018-04-15T00:27:49.478Z,18.94
2018-04-15T00:30:17.524Z,18.70
2018-04-15T00:32:45.522Z,18.68
2018-04-15T00:35:13.538Z,18.34
2018-04-15T00:37:41.469Z,18.40
2018-04-15T00:40:09.488Z,18.19
2018-04-15T00:42:37.481Z,17.51
2018-04-15T00:45:05.494Z,17.96
2018-04-15T00:47:33.453Z,18.18
2018-04-15T00:50:01.494Z,18.05
2018-04-15T00:52:29.478Z,17.48
2018-04-15T00:54:57.441Z,18.05
2018-04-15T00:57:25.442Z,17.78
2018-04-15T00:59:53.447Z,18.12
2018-04-15T01:02:21.464Z,17.63
2018-04-15T01:04:49.437Z,16.99
2018-04-15T01:07:17.393Z,17.49
2018-04-15T01:09:45.369Z,16.99
2018-04-15T01:12:13.437Z,17.32
2018-04-15T01:14:41.446Z,17.04
2018-04-15T01:17:09.468Z,17.40
2018-04-15T01:19:37.414Z,17.68
2018-04-15T01:22:05.901Z,17.70
2018-04-15T01:24:33.986Z,17.56
2018-04-15T01:27:02.003Z,17.67
2018-04-15T01:29:30.028Z,17.76
2018-04-15T01:31:58.005Z,17.85
2018-04-15T01:34:26.020Z,17.91
2018-04-15T01:36:54.012Z,17.90
2018-04-15T01:39:21.965Z,17.83
2018-04-15T01:41:50.004Z,17.98
2018-04-15T01:44:17.979Z,17.95
2018-04-15T01:46:45.914Z,17.97
2018-04-15T01:49:13.909Z,17.93
2018-04-15T01:51:41.956Z,17.96
2018-04-15T01:54:09.928Z,18.05
2018-04-15T01:56:37.882Z,18.08
2018-04-15T01:59:05.901Z,17.83
2018-04-15T02:01:33.865Z,17.89
2018-04-15T02:04:01.874Z,17.84
2018-04-15T02:06:29.851Z,17.84
2018-04-15T02:08:57.785Z,17.85
2018-04-15T02:11:25.746Z,17.79
2018-04-15T02:13:53.766Z,17.82
2018-04-15T02:16:21.743Z,17.73
2018-04-15T02:18:49.738Z,17.75
2018-04-15T02:21:17.705Z,17.74
2018-04-15T02:23:45.954Z,17.70
2018-04-15T02:26:13.849Z,17.68
2018-04-15T02:28:41.830Z,17.71
2018-04-15T02:31:09.844Z,17.70
2018-04-15T02:33:37.951Z,17.68
2018-04-15T02:36:05.959Z,17.63
2018-04-15T02:38:33.930Z,17.28
2018-04-15T02:41:01.913Z,17.31
2018-04-15T02:43:30.267Z,17.34
2018-04-15T02:45:58.274Z,16.85
2018-04-15T02:48:26.265Z,17.46
2018-04-15T02:50:54.262Z,17.65
2018-04-15T02:53:22.237Z,17.42
2018-04-15T02:55:50.202Z,17.09
2018-04-15T02:58:18.170Z,16.79
2018-04-15T03:00:46.096Z,16.22
2018-04-15T03:03:14.099Z,16.52
2018-04-15T03:05:42.142Z,16.69
2018-04-15T03:08:10.124Z,16.98
2018-04-15T03:10:38.160Z,17.06
2018-04-15T03:13:06.129Z,17.24
2018-04-15T03:15:34.106Z,17.02
2018-04-15T03:18:02.123Z,16.90
2018-04-15T03:20:30.077Z,16.93
2018-04-15T03:22:58.018Z,16.95
2018-04-15T03:25:26.286Z,16.91
2018-04-15T03:27:54.292Z,16.39
2018-04-15T03:30:22.376Z,16.66
2018-04-15T03:32:50.469Z,16.77
2018-04-15T03:35:18.449Z,16.84
2018-04-15T03:37:46.385Z,16.89
2018-04-15T03:40:14.424Z,16.97
2018-04-15T03:42:42.400Z,17.12
2018-04-15T03:45:10.343Z,17.25
2018-04-15T03:47:38.342Z,17.31
2018-04-15T03:50:06.337Z,17.25
2018-04-15T03:52:34.317Z,17.14
2018-04-15T03:55:02.307Z,17.29
2018-04-15T03:57:30.291Z,17.30
2018-04-15T03:59:58.242Z,17.33
2018-04-15T04:02:26.301Z,16.87
2018-04-15T04:04:54.259Z,16.83
2018-04-15T04:07:22.249Z,16.90
2018-04-15T04:09:50.251Z,16.76
2018-04-15T04:12:18.228Z,16.35
2018-04-15T04:14:46.194Z,16.28
2018-04-15T04:17:14.129Z,16.39
2018-04-15T04:19:53.947Z,15.67
2018-04-15T04:22:34.181Z,16.15
2018-04-15T04:28:11.333Z,15.17
2018-04-15T04:30:39.234Z,15.42
2018-04-15T04:33:07.199Z,15.33
2018-04-15T04:35:35.228Z,15.84
2018-04-15T04:38:03.197Z,16.44
2018-04-15T04:40:31.290Z,16.90
2018-04-15T04:42:59.288Z,17.17
2018-04-15T04:45:27.228Z,16.91
2018-04-15T04:47:55.273Z,16.79
2018-04-15T04:50:23.243Z,17.05
2018-04-15T04:52:51.161Z,17.53
2018-04-15T04:55:19.384Z,17.18
2018-04-15T04:57:47.675Z,17.75
2018-04-15T05:00:15.682Z,17.53
2018-04-15T05:02:43.624Z,17.02
2018-04-15T05:05:11.647Z,17.42
2018-04-15T05:07:39.682Z,16.73
2018-04-15T05:10:07.793Z,16.20
2018-04-15T05:12:35.706Z,16.15
2018-04-15T05:15:03.731Z,16.63
2018-04-15T05:17:31.697Z,16.97
2018-04-15T05:19:59.684Z,17.39
2018-04-15T05:22:27.730Z,17.68
2018-04-15T05:24:55.822Z,17.34
2018-04-15T05:27:23.841Z,17.36
2018-04-15T05:29:52.173Z,17.84
2018-04-15T05:32:20.216Z,18.34
2018-04-15T05:34:48.293Z,18.78
2018-04-15T05:37:16.253Z,18.04
2018-04-15T05:39:44.213Z,18.10
2018-04-15T05:42:12.273Z,18.31
2018-04-15T05:44:40.288Z,18.53
2018-04-15T05:47:08.254Z,18.24
2018-04-15T05:49:36.249Z,17.94
2018-04-15T05:52:04.217Z,17.90
2018-04-15T05:54:32.231Z,17.64
2018-04-15T05:57:00.210Z,17.51
2018-04-15T05:59:28.305Z,17.61
2018-04-15T06:01:56.294Z,18.32
2018-04-15T06:04:24.273Z,18.68
2018-04-15T06:06:52.164Z,18.67
2018-04-15T06:09:20.129Z,18.86
2018-04-15T06:11:48.069Z,18.78
2018-04-15T06:14:16.021Z,19.20
2018-04-15T06:16:44.024Z,19.06
2018-04-15T06:19:11.978Z,18.74
2018-04-15T06:21:40.176Z,19.09
2018-04-15T06:24:08.181Z,19.07
2018-04-15T06:26:36.291Z,19.36
2018-04-15T06:29:04.323Z,19.63
2018-04-15T06:31:32.532Z,20.07
2018-04-15T06:34:00.496Z,20.16
2018-04-15T06:36:28.417Z,20.51
2018-04-15T06:38:56.349Z,19.87
2018-04-15T06:41:24.284Z,20.77
2018-04-15T06:43:52.272Z,20.91
2018-04-15T06:46:20.275Z,21.44
2018-04-15T06:48:48.273Z,20.78
2018-04-15T06:51:16.403Z,20.33
2018-04-15T06:53:44.449Z,20.45
2018-04-15T06:56:12.466Z,20.35
2018-04-15T06:58:40.970Z,21.50
2018-04-15T07:01:08.929Z,22.21
2018-04-15T07:03:36.925Z,23.04
2018-04-15T07:06:04.917Z,22.04
2018-04-15T07:08:32.933Z,21.89
2018-04-15T07:11:00.925Z,21.04
2018-04-15T07:13:29.226Z,21.62
2018-04-15T07:15:57.228Z,21.32
2018-04-15T07:18:25.355Z,20.93
2018-04-15T07:20:53.317Z,20.91
2018-04-15T07:23:21.272Z,21.38
2018-04-15T07:25:49.159Z,21.69
2018-04-15T07:28:17.130Z,21.65
2018-04-15T07:30:45.090Z,21.94
2018-04-15T07:33:13.489Z,21.99
2018-04-15T07:35:41.518Z,22.19
2018-04-15T07:38:09.526Z,22.74
2018-04-15T07:40:37.518Z,22.84
2018-04-15T07:43:05.498Z,23.01
2018-04-15T07:45:33.471Z,23.15
2018-04-15T07:48:01.470Z,23.06
2018-04-15T07:50:29.449Z,23.03
2018-04-15T07:52:57.457Z,22.90
2018-04-15T07:55:25.474Z,23.18
2018-04-15T07:57:53.495Z,22.85
2018-04-15T08:00:21.545Z,22.62
2018-04-15T08:02:49.487Z,22.59
2018-04-15T08:05:17.496Z,22.86
2018-04-15T08:07:45.517Z,23.18
2018-04-15T08:10:13.546Z,22.89
2018-04-15T08:12:41.543Z,22.94
2018-04-15T08:15:09.505Z,23.08
2018-04-15T08:17:37.481Z,23.59
2018-04-15T08:20:05.421Z,22.78
2018-04-15T08:22:33.423Z,22.51
2018-04-15T08:25:01.513Z,22.88
2018-04-15T08:27:29.419Z,22.99
2018-04-15T08:29:57.398Z,23.22
2018-04-15T08:32:25.338Z,23.52
2018-04-15T08:34:53.582Z,23.46
2018-04-15T08:37:21.518Z,23.98
2018-04-15T08:39:49.461Z,24.34
2018-04-15T08:42:17.434Z,23.88
2018-04-15T08:44:45.329Z,23.63
2018-04-15T08:47:13.283Z,23.78
2018-04-15T08:49:41.274Z,23.81
2018-04-15T08:52:09.314Z,24.31
2018-04-15T08:54:37.349Z,23.00
2018-04-15T08:57:05.253Z,23.11
2018-04-15T08:59:33.286Z,22.74
2018-04-15T09:02:01.205Z,23.52
2018-04-15T09:04:29.193Z,23.22
2018-04-15T09:06:57.128Z,23.54
2018-04-15T09:09:25.145Z,23.43
2018-04-15T09:11:53.073Z,22.41
2018-04-15T09:14:21.085Z,22.35
2018-04-15T09:16:49.009Z,23.64
2018-04-15T09:19:16.967Z,24.58
2018-04-15T09:21:44.924Z,25.29
2018-04-15T09:24:12.903Z,25.64
2018-04-15T09:26:40.922Z,26.36
2018-04-15T09:29:08.886Z,25.96
2018-04-15T09:31:36.877Z,26.09
2018-04-15T09:34:04.906Z,24.96
2018-04-15T09:36:33.418Z,24.94
2018-04-15T09:39:01.479Z,25.55
2018-04-15T09:41:29.450Z,25.74
2018-04-15T09:43:57.445Z,25.80
2018-04-15T09:46:25.407Z,24.90
2018-04-15T09:48:53.455Z,24.68
2018-04-15T09:51:21.441Z,24.97
2018-04-15T09:53:49.451Z,25.31
2018-04-15T09:56:17.376Z,25.29
2018-04-15T09:58:45.305Z,24.41
2018-04-15T10:01:17.138Z,24.34
2018-04-15T10:03:45.060Z,24.53
2018-04-15T10:06:13.022Z,24.89
2018-04-15T10:08:41.056Z,24.77
2018-04-15T10:11:09.078Z,25.23
2018-04-15T10:13:37.204Z,24.86
2018-04-15T10:16:05.182Z,25.09
2018-04-15T10:18:33.109Z,24.88
2018-04-15T10:21:01.059Z,24.67
2018-04-15T10:23:29.020Z,24.93
2018-04-15T10:25:57.025Z,25.03
2018-04-15T10:28:25.000Z,24.82
2018-04-15T10:30:53.043Z,24.94
2018-04-15T10:33:20.964Z,25.01
2018-04-15T10:35:48.968Z,25.01
2018-04-15T10:38:17.439Z,24.52
2018-04-15T10:40:45.393Z,24.69
2018-04-15T10:43:13.474Z,24.51
2018-04-15T10:45:41.517Z,25.22
2018-04-15T10:48:09.475Z,25.36
2018-04-15T10:50:37.490Z,25.71
2018-04-15T10:53:05.468Z,26.51
2018-04-15T10:55:33.397Z,27.03
2018-04-15T10:58:01.334Z,27.37
2018-04-15T11:00:29.332Z,27.05
2018-04-15T11:02:57.333Z,27.32
2018-04-15T11:05:25.331Z,27.40
2018-04-15T11:07:53.304Z,27.74
2018-04-15T11:10:21.254Z,27.38
2018-04-15T11:12:49.216Z,27.27
2018-04-15T11:15:17.142Z,26.71
2018-04-15T11:17:45.127Z,26.15
2018-04-15T11:20:13.072Z,25.61
2018-04-15T11:22:41.057Z,25.90
2018-04-15T11:25:09.036Z,25.72
2018-04-15T11:27:37.007Z,25.51
2018-04-15T11:30:05.049Z,26.06
2018-04-15T11:32:33.037Z,24.90
2018-04-15T11:35:01.060Z,25.04
2018-04-15T11:37:28.997Z,25.38
2018-04-15T11:39:57.609Z,25.04
2018-04-15T11:42:25.605Z,25.65
2018-04-15T11:44:53.656Z,26.15
2018-04-15T11:47:21.657Z,25.94
2018-04-15T11:49:49.685Z,26.21
2018-04-15T11:52:17.653Z,26.21
2018-04-15T11:54:45.569Z,26.00
2018-04-15T11:57:13.537Z,25.67
2018-04-15T11:59:41.535Z,25.32
2018-04-15T12:02:09.523Z,25.62
2018-04-15T12:04:37.525Z,25.53
2018-04-15T12:07:05.504Z,25.74
2018-04-15T12:09:33.448Z,25.55
2018-04-15T12:12:01.372Z,25.87
2018-04-15T12:14:29.397Z,25.83
2018-04-15T12:16:57.323Z,25.23
2018-04-15T12:19:25.327Z,25.43
2018-04-15T12:21:53.259Z,25.22
2018-04-15T12:24:21.299Z,25.66
2018-04-15T12:26:49.274Z,25.63
2018-04-15T12:29:17.266Z,25.58
2018-04-15T12:31:45.282Z,25.19
2018-04-15T12:34:13.249Z,25.50
2018-04-15T12:36:41.229Z,25.31
2018-04-15T12:39:09.239Z,25.65
2018-04-15T12:41:37.685Z,25.42
2018-04-15T12:44:05.628Z,25.35
2018-04-15T12:46:33.704Z,25.48
2018-04-15T12:49:01.668Z,25.56
2018-04-15T12:51:29.689Z,25.30
2018-04-15T12:53:57.650Z,25.17
2018-04-15T12:56:25.621Z,25.34
2018-04-15T12:58:53.622Z,24.96
2018-04-15T13:01:21.587Z,25.23
2018-04-15T13:03:49.538Z,25.75
2018-04-15T13:06:17.547Z,25.95
2018-04-15T13:08:45.553Z,26.36
2018-04-15T13:11:13.591Z,25.59
2018-04-15T13:13:41.520Z,25.85
2018-04-15T13:16:09.520Z,26.15
2018-04-15T13:18:37.537Z,25.91
2018-04-15T13:21:05.485Z,25.82
2018-04-15T13:23:33.483Z,25.63
2018-04-15T13:26:01.510Z,25.08
2018-04-15T13:28:29.477Z,25.40
2018-04-15T13:30:57.538Z,25.73
2018-04-15T13:33:25.574Z,25.88
2018-04-15T13:35:53.595Z,25.67
2018-04-15T13:38:21.658Z,25.38
2018-04-15T13:40:49.596Z,24.84
2018-04-15T13:43:17.921Z,24.77
2018-04-15T13:45:45.943Z,25.05
2018-04-15T13:48:13.893Z,25.40
2018-04-15T13:50:41.849Z,24.64
2018-04-15T13:53:09.810Z,24.56
2018-04-15T13:55:37.832Z,24.69
2018-04-15T13:58:05.815Z,24.75
2018-04-15T14:00:33.801Z,25.46
2018-04-15T14:03:01.767Z,25.18
2018-04-15T14:05:29.722Z,24.81
2018-04-15T14:07:57.690Z,25.46
2018-04-15T14:10:25.680Z,25.45
2018-04-15T14:12:53.718Z,25.94
2018-04-15T14:15:21.817Z,25.51
2018-04-15T14:17:49.838Z,25.38
2018-04-15T14:20:17.861Z,25.98
2018-04-15T14:22:45.901Z,25.29
2018-04-15T14:25:13.875Z,25.50
2018-04-15T14:27:41.877Z,25.78
2018-04-15T14:30:09.894Z,25.84
2018-04-15T14:32:37.815Z,26.21
2018-04-15T14:35:05.800Z,26.03
2018-04-15T14:37:33.778Z,25.20
2018-04-15T14:40:01.780Z,25.20
2018-04-15T14:42:29.778Z,25.15
2018-04-15T14:44:58.158Z,25.06
2018-04-15T14:47:26.151Z,25.48
2018-04-15T14:49:54.129Z,25.34
2018-04-15T14:52:22.960Z,24.74
2018-04-15T14:54:50.942Z,25.01
2018-04-15T14:57:18.895Z,24.31
2018-04-15T14:59:46.888Z,24.42
2018-04-15T15:02:14.880Z,25.06
2018-04-15T15:04:42.925Z,25.07
2018-04-15T15:07:10.984Z,24.51
2018-04-15T15:09:39.062Z,24.91
2018-04-15T15:12:07.000Z,24.60
2018-04-15T15:14:35.081Z,24.81
2018-04-15T15:17:03.070Z,24.98
2018-04-15T15:19:31.076Z,25.10
2018-04-15T15:21:59.188Z,25.24
2018-04-15T15:24:27.097Z,25.30
2018-04-15T15:26:55.048Z,25.47
2018-04-15T15:29:23.015Z,25.36
2018-04-15T15:31:51.063Z,25.13
2018-04-15T15:34:19.039Z,25.17
2018-04-15T15:36:47.099Z,25.44
2018-04-15T15:39:15.128Z,25.29
2018-04-15T15:41:43.034Z,25.25
2018-04-15T15:44:10.995Z,24.93
2018-04-15T15:46:39.311Z,24.87
2018-04-15T15:49:07.385Z,24.75
2018-04-15T15:51:35.359Z,25.02
2018-04-15T15:54:03.453Z,24.59
2018-04-15T15:56:31.424Z,24.82
2018-04-15T15:58:59.353Z,24.75
2018-04-15T16:01:27.297Z,24.88
2018-04-15T16:03:55.250Z,24.77
2018-04-15T16:06:23.277Z,24.71
2018-04-15T16:08:51.252Z,24.58
2018-04-15T16:11:19.233Z,24.51
2018-04-15T16:13:47.158Z,24.60
2018-04-15T16:16:15.121Z,24.39
2018-04-15T16:18:43.085Z,24.26
2018-04-15T16:21:11.049Z,24.29
2018-04-15T16:23:39.043Z,24.21
2018-04-15T16:26:07.019Z,24.19
2018-04-15T16:28:35.015Z,24.19
2018-04-15T16:31:03.025Z,24.14
2018-04-15T16:33:31.056Z,24.07
2018-04-15T16:35:59.086Z,23.97
2018-04-15T16:38:27.012Z,23.86
2018-04-15T16:40:55.054Z,22.55
2018-04-15T16:43:23.016Z,22.33
2018-04-15T16:45:50.944Z,22.77
2018-04-15T16:48:19.243Z,23.01
2018-04-15T16:50:47.246Z,22.63
2018-04-15T16:53:15.238Z,22.27
2018-04-15T16:55:43.252Z,22.63
2018-04-15T16:58:11.256Z,22.74
2018-04-15T17:00:39.222Z,22.81
2018-04-15T17:03:07.321Z,22.79
2018-04-15T17:05:35.331Z,22.06
2018-04-15T17:08:03.289Z,22.18
2018-04-15T17:10:31.274Z,22.26
2018-04-15T17:12:59.300Z,22.33
2018-04-15T17:15:27.266Z,22.20
2018-04-15T17:17:55.323Z,21.43
2018-04-15T17:20:23.319Z,21.64
2018-04-15T17:22:51.269Z,21.70
2018-04-15T17:25:19.290Z,20.64
2018-04-15T17:27:47.291Z,20.78
2018-04-15T17:30:15.338Z,20.92
2018-04-15T17:32:43.371Z,20.56
2018-04-15T17:35:11.414Z,20.45
2018-04-15T17:37:39.368Z,20.11
2018-04-15T17:40:07.381Z,20.47
2018-04-15T17:42:35.514Z,20.94
2018-04-15T17:45:03.611Z,21.29
2018-04-15T17:47:32.499Z,21.44
2018-04-15T17:50:00.931Z,20.94
2018-04-15T17:52:29.486Z,21.20
2018-04-15T17:54:57.630Z,21.11
2018-04-15T17:57:26.998Z,21.27
2018-04-15T17:59:55.090Z,21.44
2018-04-15T18:02:23.262Z,21.45
2018-04-15T18:04:51.651Z,21.46
2018-04-15T18:07:19.743Z,21.50
2018-04-15T18:09:47.825Z,21.55
2018-04-15T18:12:15.956Z,21.54
2018-04-15T18:14:44.180Z,21.37
2018-04-15T18:17:12.513Z,21.40
2018-04-15T18:19:40.654Z,21.36
2018-04-15T18:22:08.809Z,21.36
2018-04-15T18:24:37.018Z,20.88
2018-04-15T18:27:05.596Z,21.01
2018-04-15T18:29:33.586Z,21.10
2018-04-15T18:32:01.684Z,21.17
2018-04-15T18:34:29.754Z,21.06
2018-04-15T18:36:57.847Z,21.11
2018-04-15T18:39:25.920Z,21.13
2018-04-15T18:41:53.972Z,21.16
2018-04-15T18:44:22.039Z,21.09
2018-04-15T18:46:50.062Z,20.97
2018-04-15T18:49:18.075Z,20.99
2018-04-15T18:51:46.430Z,20.99
2018-04-15T18:54:14.508Z,20.92
2018-04-15T18:56:42.421Z,20.82
2018-04-15T18:59:10.533Z,20.74
2018-04-15T19:01:38.641Z,20.72
2018-04-15T19:04:06.692Z,20.68
2018-04-15T19:06:34.724Z,20.55
2018-04-15T19:09:02.864Z,20.58
2018-04-15T19:11:30.986Z,20.66
2018-04-15T19:13:58.991Z,20.70
2018-04-15T19:16:26.922Z,20.68
2018-04-15T19:18:54.934Z,20.67
2018-04-15T19:21:22.956Z,20.63
2018-04-15T19:23:51.054Z,20.52
2018-04-15T19:26:19.131Z,20.53
2018-04-15T19:28:47.119Z,20.57
2018-04-15T19:31:15.276Z,20.57
2018-04-15T19:33:43.243Z,20.53
2018-04-15T19:36:11.323Z,20.53
2018-04-15T19:38:39.354Z,20.49
2018-04-15T19:41:07.413Z,20.45
2018-04-15T19:43:35.522Z,20.44
2018-04-15T19:46:03.595Z,20.42
2018-04-15T19:48:31.676Z,20.37
2018-04-15T19:50:59.789Z,19.64
2018-04-15T19:53:28.254Z,19.87
2018-04-15T19:55:56.341Z,19.91
2018-04-15T19:58:24.400Z,19.68
2018-04-15T20:00:52.380Z,19.85
2018-04-15T20:03:20.411Z,19.84
2018-04-15T20:05:48.579Z,18.79
2018-04-15T20:08:16.593Z,19.25
2018-04-15T20:10:44.692Z,19.38
2018-04-15T20:13:12.766Z,19.32
2018-04-15T20:15:40.811Z,19.53
2018-04-15T20:18:09.024Z,19.56
2018-04-15T20:20:37.138Z,19.15
2018-04-15T20:23:05.242Z,18.83
2018-04-15T20:25:33.373Z,18.93
2018-04-15T20:28:01.481Z,18.44
2018-04-15T20:30:29.580Z,18.98
2018-04-15T20:32:57.619Z,19.24
2018-04-15T20:35:25.655Z,19.45
2018-04-15T20:37:53.681Z,19.38
2018-04-15T20:40:21.734Z,18.92
2018-04-15T20:42:49.815Z,19.23
2018-04-15T20:45:17.876Z,19.37
2018-04-15T20:47:45.958Z,19.43
2018-04-15T20:50:13.999Z,19.43
2018-04-15T20:52:42.030Z,19.41
2018-04-15T20:55:10.498Z,19.46
2018-04-15T20:57:38.518Z,19.45
2018-04-15T21:00:06.616Z,19.47
2018-04-15T21:02:34.546Z,18.76
2018-04-15T21:05:02.620Z,18.97
2018-04-15T21:07:30.707Z,19.20
2018-04-15T21:09:58.892Z,19.25
2018-04-15T21:12:26.959Z,19.32
2018-04-15T21:14:54.946Z,19.38
2018-04-15T21:17:22.989Z,19.38
2018-04-15T21:19:51.016Z,19.37
2018-04-15T21:22:19.034Z,18.84
2018-04-15T21:24:47.054Z,17.99
2018-04-15T21:27:15.094Z,17.46
2018-04-15T21:29:43.077Z,18.07
2018-04-15T21:32:11.108Z,18.48
2018-04-15T21:34:38.989Z,18.40
2018-04-15T21:37:07.170Z,18.06
2018-04-15T21:39:35.237Z,18.16
2018-04-15T21:42:03.304Z,18.40
2018-04-15T21:44:31.327Z,18.74
2018-04-15T21:46:59.367Z,18.94
2018-04-15T21:49:27.372Z,19.03
2018-04-15T21:51:55.402Z,19.05
2018-04-15T21:54:23.555Z,18.92
2018-04-15T21:56:51.710Z,18.98
2018-04-15T21:59:19.722Z,19.05
2018-04-15T22:01:47.750Z,19.05
2018-04-15T22:04:15.701Z,18.91
2018-04-15T22:06:43.652Z,18.82
2018-04-15T22:09:11.538Z,18.71
2018-04-15T22:11:51.285Z,18.64
2018-04-15T22:14:20.314Z,18.61
2018-04-15T22:16:48.304Z,18.49
2018-04-15T22:19:16.304Z,18.49
2018-04-15T22:21:44.301Z,18.55
2018-04-15T22:24:12.319Z,18.43
2018-04-15T22:26:40.522Z,18.30
2018-04-15T22:29:08.485Z,18.15
2018-04-15T22:31:36.397Z,18.12
2018-04-15T22:34:04.381Z,18.24
2018-04-15T22:36:32.351Z,18.20
2018-04-15T22:39:00.347Z,18.18
2018-04-15T22:41:28.298Z,18.24
2018-04-15T22:43:56.285Z,18.16
2018-04-15T22:46:24.304Z,18.16
2018-04-15T22:48:57.281Z,18.13
2018-04-15T22:51:25.266Z,18.02
2018-04-15T22:53:53.318Z,18.06
2018-04-15T22:56:21.334Z,17.97
2018-04-15T22:58:49.701Z,17.41
2018-04-15T23:01:17.641Z,17.74
2018-04-15T23:03:45.645Z,17.76
2018-04-15T23:06:13.634Z,17.84
2018-04-15T23:08:41.590Z,17.83
2018-04-15T23:11:09.674Z,16.87
2018-04-15T23:13:37.619Z,16.62
2018-04-15T23:16:05.583Z,16.62
2018-04-15T23:18:33.611Z,17.06
2018-04-15T23:21:01.664Z,17.25
2018-04-15T23:23:29.592Z,17.44
2018-04-15T23:25:57.499Z,17.55
2018-04-15T23:28:25.458Z,17.57
2018-04-15T23:30:53.438Z,17.57
2018-04-15T23:33:21.443Z,17.15
2018-04-15T23:35:49.410Z,17.32
2018-04-15T23:38:17.313Z,17.14
2018-04-15T23:40:45.265Z,17.05
2018-04-15T23:43:13.222Z,17.21
2018-04-15T23:45:41.231Z,17.28
2018-04-15T23:48:09.233Z,17.29
2018-04-15T23:50:37.221Z,16.21
2018-04-15T23:53:05.161Z,16.78
2018-04-15T23:55:33.180Z,17.08
2018-04-15T23:58:01.210Z,17.08
